sensor_id;sensor_type;location;lat;lon;timestamp;P1;durP1;ratioP1;P2;durP2;ratioP2
36001;SDS011;22070;50.922;5.430;2023-10-08T00:02:44;3.97;;;2.50;;
36001;SDS011;22070;50.922;5.430;2023-10-08T00:05:10;6.28;;;3.08;;
36001;SDS011;22070;50.922;5.430;2023-10-08T00:07:40;6.00;;;2.90;;
36001;SDS011;22070;50.922;5.430;2023-10-08T00:10:07;7.43;;;3.30;;
36001;SDS011;22070;50.922;5.430;2023-10-08T00:12:33;4.95;;;2.50;;
36001;SDS011;22070;50.922;5.430;2023-10-08T00:14:59;4.87;;;2.53;;
36001;SDS011;22070;50.922;5.430;2023-10-08T00:17:25;6.90;;;2.73;;
36001;SDS011;22070;50.922;5.430;2023-10-08T00:19:51;4.80;;;2.73;;
36001;SDS011;22070;50.922;5.430;2023-10-08T00:22:18;7.15;;;3.00;;
36001;SDS011;22070;50.922;5.430;2023-10-08T00:24:44;4.80;;;2.58;;
36001;SDS011;22070;50.922;5.430;2023-10-08T00:27:19;8.30;;;2.38;;
36001;SDS011;22070;50.922;5.430;2023-10-08T00:29:47;4.05;;;2.70;;
36001;SDS011;22070;50.922;5.430;2023-10-08T00:32:12;5.70;;;2.97;;
36001;SDS011;22070;50.922;5.430;2023-10-08T00:34:41;6.00;;;2.87;;
36001;SDS011;22070;50.922;5.430;2023-10-08T00:37:08;5.00;;;2.28;;
36001;SDS011;22070;50.922;5.430;2023-10-08T00:39:39;5.53;;;2.40;;
36001;SDS011;22070;50.922;5.430;2023-10-08T00:42:06;3.20;;;2.47;;
36001;SDS011;22070;50.922;5.430;2023-10-08T00:44:33;5.18;;;2.40;;
36001;SDS011;22070;50.922;5.430;2023-10-08T00:47:16;5.85;;;2.78;;
36001;SDS011;22070;50.922;5.430;2023-10-08T00:49:42;4.00;;;2.45;;
36001;SDS011;22070;50.922;5.430;2023-10-08T00:52:09;5.33;;;2.97;;
36001;SDS011;22070;50.922;5.430;2023-10-08T00:54:36;7.10;;;2.40;;
36001;SDS011;22070;50.922;5.430;2023-10-08T00:57:22;8.02;;;2.85;;
36001;SDS011;22070;50.922;5.430;2023-10-08T00:59:50;5.50;;;2.90;;
36001;SDS011;22070;50.922;5.430;2023-10-08T01:02:27;3.47;;;2.60;;
36001;SDS011;22070;50.922;5.430;2023-10-08T01:05:01;5.32;;;2.50;;
36001;SDS011;22070;50.922;5.430;2023-10-08T01:07:27;4.33;;;2.53;;
36001;SDS011;22070;50.922;5.430;2023-10-08T01:09:55;6.05;;;2.50;;
36001;SDS011;22070;50.922;5.430;2023-10-08T01:12:26;5.13;;;2.30;;
36001;SDS011;22070;50.922;5.430;2023-10-08T01:14:57;5.05;;;2.80;;
36001;SDS011;22070;50.922;5.430;2023-10-08T01:17:30;4.97;;;2.45;;
36001;SDS011;22070;50.922;5.430;2023-10-08T01:19:57;6.50;;;2.53;;
36001;SDS011;22070;50.922;5.430;2023-10-08T01:22:46;3.95;;;2.30;;
36001;SDS011;22070;50.922;5.430;2023-10-08T01:25:12;4.73;;;2.47;;
36001;SDS011;22070;50.922;5.430;2023-10-08T01:27:46;6.10;;;2.72;;
36001;SDS011;22070;50.922;5.430;2023-10-08T01:30:12;5.20;;;2.57;;
36001;SDS011;22070;50.922;5.430;2023-10-08T01:32:43;3.95;;;2.63;;
36001;SDS011;22070;50.922;5.430;2023-10-08T01:35:09;6.38;;;2.78;;
36001;SDS011;22070;50.922;5.430;2023-10-08T01:37:51;4.70;;;2.38;;
36001;SDS011;22070;50.922;5.430;2023-10-08T01:40:17;4.10;;;2.20;;
36001;SDS011;22070;50.922;5.430;2023-10-08T01:42:43;5.20;;;2.60;;
36001;SDS011;22070;50.922;5.430;2023-10-08T01:45:10;4.43;;;2.38;;
36001;SDS011;22070;50.922;5.430;2023-10-08T01:47:44;6.20;;;2.55;;
36001;SDS011;22070;50.922;5.430;2023-10-08T01:50:10;3.47;;;2.20;;
36001;SDS011;22070;50.922;5.430;2023-10-08T01:52:50;5.50;;;2.45;;
36001;SDS011;22070;50.922;5.430;2023-10-08T01:55:16;3.78;;;2.10;;
36001;SDS011;22070;50.922;5.430;2023-10-08T01:57:43;4.78;;;2.40;;
36001;SDS011;22070;50.922;5.430;2023-10-08T02:00:09;8.30;;;2.65;;
36001;SDS011;22070;50.922;5.430;2023-10-08T02:02:36;4.50;;;2.40;;
36001;SDS011;22070;50.922;5.430;2023-10-08T02:05:01;5.23;;;1.93;;
36001;SDS011;22070;50.922;5.430;2023-10-08T02:07:31;7.75;;;2.50;;
36001;SDS011;22070;50.922;5.430;2023-10-08T02:09:59;7.35;;;2.50;;
36001;SDS011;22070;50.922;5.430;2023-10-08T02:12:24;12.10;;;2.40;;
36001;SDS011;22070;50.922;5.430;2023-10-08T02:14:50;5.77;;;2.73;;
36001;SDS011;22070;50.922;5.430;2023-10-08T02:17:16;7.13;;;2.60;;
36001;SDS011;22070;50.922;5.430;2023-10-08T02:19:42;3.70;;;2.30;;
36001;SDS011;22070;50.922;5.430;2023-10-08T02:22:08;3.83;;;2.33;;
36001;SDS011;22070;50.922;5.430;2023-10-08T02:24:36;7.72;;;3.20;;
36001;SDS011;22070;50.922;5.430;2023-10-08T02:27:02;3.80;;;2.15;;
36001;SDS011;22070;50.922;5.430;2023-10-08T02:29:29;4.23;;;2.67;;
36001;SDS011;22070;50.922;5.430;2023-10-08T02:31:58;6.50;;;2.22;;
36001;SDS011;22070;50.922;5.430;2023-10-08T02:34:24;4.68;;;2.25;;
36001;SDS011;22070;50.922;5.430;2023-10-08T02:36:51;4.97;;;2.40;;
36001;SDS011;22070;50.922;5.430;2023-10-08T02:39:17;6.63;;;2.20;;
36001;SDS011;22070;50.922;5.430;2023-10-08T02:41:46;3.83;;;2.08;;
36001;SDS011;22070;50.922;5.430;2023-10-08T02:46:49;4.93;;;2.38;;
36001;SDS011;22070;50.922;5.430;2023-10-08T02:49:19;2.92;;;2.03;;
36001;SDS011;22070;50.922;5.430;2023-10-08T02:51:46;4.40;;;2.65;;
36001;SDS011;22070;50.922;5.430;2023-10-08T02:54:15;5.82;;;2.50;;
36001;SDS011;22070;50.922;5.430;2023-10-08T02:56:46;6.97;;;2.45;;
36001;SDS011;22070;50.922;5.430;2023-10-08T02:59:16;3.35;;;1.83;;
36001;SDS011;22070;50.922;5.430;2023-10-08T03:01:42;4.37;;;2.10;;
36001;SDS011;22070;50.922;5.430;2023-10-08T03:04:11;6.47;;;2.83;;
36001;SDS011;22070;50.922;5.430;2023-10-08T03:06:43;5.28;;;2.20;;
36001;SDS011;22070;50.922;5.430;2023-10-08T03:09:19;4.07;;;2.05;;
36001;SDS011;22070;50.922;5.430;2023-10-08T03:11:48;4.38;;;2.22;;
36001;SDS011;22070;50.922;5.430;2023-10-08T03:14:15;6.47;;;2.50;;
36001;SDS011;22070;50.922;5.430;2023-10-08T03:16:50;8.57;;;2.80;;
36001;SDS011;22070;50.922;5.430;2023-10-08T03:19:23;6.63;;;2.00;;
36001;SDS011;22070;50.922;5.430;2023-10-08T03:21:50;3.55;;;1.95;;
36001;SDS011;22070;50.922;5.430;2023-10-08T03:24:22;6.13;;;2.38;;
36001;SDS011;22070;50.922;5.430;2023-10-08T03:27:00;3.95;;;1.90;;
36001;SDS011;22070;50.922;5.430;2023-10-08T03:29:53;7.88;;;2.53;;
36001;SDS011;22070;50.922;5.430;2023-10-08T03:32:19;3.53;;;2.38;;
36001;SDS011;22070;50.922;5.430;2023-10-08T03:34:51;4.03;;;2.30;;
36001;SDS011;22070;50.922;5.430;2023-10-08T03:37:21;6.40;;;2.72;;
36001;SDS011;22070;50.922;5.430;2023-10-08T03:39:54;3.15;;;2.03;;
36001;SDS011;22070;50.922;5.430;2023-10-08T03:42:32;3.65;;;1.98;;
36001;SDS011;22070;50.922;5.430;2023-10-08T03:45:06;3.55;;;1.92;;
36001;SDS011;22070;50.922;5.430;2023-10-08T03:47:37;5.07;;;2.22;;
36001;SDS011;22070;50.922;5.430;2023-10-08T03:50:06;3.70;;;2.55;;
36001;SDS011;22070;50.922;5.430;2023-10-08T03:52:35;7.35;;;2.22;;
36001;SDS011;22070;50.922;5.430;2023-10-08T03:55:06;6.05;;;2.30;;
36001;SDS011;22070;50.922;5.430;2023-10-08T03:57:44;4.68;;;2.28;;
36001;SDS011;22070;50.922;5.430;2023-10-08T04:00:13;8.00;;;2.35;;
36001;SDS011;22070;50.922;5.430;2023-10-08T04:02:56;6.05;;;2.08;;
36001;SDS011;22070;50.922;5.430;2023-10-08T04:05:26;7.80;;;2.10;;
36001;SDS011;22070;50.922;5.430;2023-10-08T04:07:57;3.28;;;2.15;;
36001;SDS011;22070;50.922;5.430;2023-10-08T04:10:23;7.30;;;2.40;;
36001;SDS011;22070;50.922;5.430;2023-10-08T04:13:04;5.90;;;2.15;;
36001;SDS011;22070;50.922;5.430;2023-10-08T04:15:34;4.05;;;2.08;;
36001;SDS011;22070;50.922;5.430;2023-10-08T04:18:05;4.20;;;2.10;;
36001;SDS011;22070;50.922;5.430;2023-10-08T04:20:32;3.85;;;2.08;;
36001;SDS011;22070;50.922;5.430;2023-10-08T04:23:04;4.07;;;1.88;;
36001;SDS011;22070;50.922;5.430;2023-10-08T04:25:38;6.32;;;2.42;;
36001;SDS011;22070;50.922;5.430;2023-10-08T04:28:04;4.00;;;2.55;;
36001;SDS011;22070;50.922;5.430;2023-10-08T04:30:34;4.07;;;2.20;;
36001;SDS011;22070;50.922;5.430;2023-10-08T04:33:04;5.05;;;2.50;;
36001;SDS011;22070;50.922;5.430;2023-10-08T04:35:37;5.63;;;2.22;;
36001;SDS011;22070;50.922;5.430;2023-10-08T04:38:22;4.88;;;2.00;;
36001;SDS011;22070;50.922;5.430;2023-10-08T04:40:50;5.47;;;2.17;;
36001;SDS011;22070;50.922;5.430;2023-10-08T04:43:18;7.18;;;2.40;;
36001;SDS011;22070;50.922;5.430;2023-10-08T04:45:50;3.75;;;2.53;;
36001;SDS011;22070;50.922;5.430;2023-10-08T04:48:16;4.53;;;2.25;;
36001;SDS011;22070;50.922;5.430;2023-10-08T04:50:48;4.18;;;2.03;;
36001;SDS011;22070;50.922;5.430;2023-10-08T04:53:31;11.38;;;2.72;;
36001;SDS011;22070;50.922;5.430;2023-10-08T04:56:01;6.35;;;2.05;;
36001;SDS011;22070;50.922;5.430;2023-10-08T04:58:32;4.35;;;2.25;;
36001;SDS011;22070;50.922;5.430;2023-10-08T05:00:59;5.10;;;2.40;;
36001;SDS011;22070;50.922;5.430;2023-10-08T05:03:42;5.22;;;2.33;;
36001;SDS011;22070;50.922;5.430;2023-10-08T05:06:24;5.13;;;2.42;;
36001;SDS011;22070;50.922;5.430;2023-10-08T05:09:00;7.83;;;2.23;;
36001;SDS011;22070;50.922;5.430;2023-10-08T05:11:50;6.93;;;2.17;;
36001;SDS011;22070;50.922;5.430;2023-10-08T05:14:19;7.55;;;2.65;;
36001;SDS011;22070;50.922;5.430;2023-10-08T05:17:07;9.85;;;2.10;;
36001;SDS011;22070;50.922;5.430;2023-10-08T05:19:47;4.97;;;2.55;;
36001;SDS011;22070;50.922;5.430;2023-10-08T05:22:23;7.40;;;2.25;;
36001;SDS011;22070;50.922;5.430;2023-10-08T05:24:55;4.38;;;2.22;;
36001;SDS011;22070;50.922;5.430;2023-10-08T05:27:41;6.90;;;2.47;;
36001;SDS011;22070;50.922;5.430;2023-10-08T05:30:13;4.78;;;2.15;;
36001;SDS011;22070;50.922;5.430;2023-10-08T05:33:08;7.13;;;2.35;;
36001;SDS011;22070;50.922;5.430;2023-10-08T05:35:49;3.10;;;2.10;;
36001;SDS011;22070;50.922;5.430;2023-10-08T05:38:19;3.53;;;2.13;;
36001;SDS011;22070;50.922;5.430;2023-10-08T05:40:56;5.70;;;1.85;;
36001;SDS011;22070;50.922;5.430;2023-10-08T05:43:26;4.90;;;1.95;;
36001;SDS011;22070;50.922;5.430;2023-10-08T05:46:02;4.00;;;2.08;;
36001;SDS011;22070;50.922;5.430;2023-10-08T05:48:46;3.75;;;2.28;;
36001;SDS011;22070;50.922;5.430;2023-10-08T05:51:41;6.82;;;2.15;;
36001;SDS011;22070;50.922;5.430;2023-10-08T05:54:14;4.72;;;2.47;;
36001;SDS011;22070;50.922;5.430;2023-10-08T05:56:58;3.75;;;2.17;;
36001;SDS011;22070;50.922;5.430;2023-10-08T05:59:44;5.50;;;2.20;;
36001;SDS011;22070;50.922;5.430;2023-10-08T06:02:23;4.10;;;2.13;;
36001;SDS011;22070;50.922;5.430;2023-10-08T06:04:58;4.55;;;2.38;;
36001;SDS011;22070;50.922;5.430;2023-10-08T06:07:51;5.80;;;2.28;;
36001;SDS011;22070;50.922;5.430;2023-10-08T06:10:18;3.80;;;2.10;;
36001;SDS011;22070;50.922;5.430;2023-10-08T06:13:13;5.40;;;2.13;;
36001;SDS011;22070;50.922;5.430;2023-10-08T06:15:55;7.47;;;2.42;;
36001;SDS011;22070;50.922;5.430;2023-10-08T06:18:25;4.00;;;1.85;;
36001;SDS011;22070;50.922;5.430;2023-10-08T06:21:02;6.15;;;2.70;;
36001;SDS011;22070;50.922;5.430;2023-10-08T06:23:39;6.85;;;2.65;;
36001;SDS011;22070;50.922;5.430;2023-10-08T06:26:07;4.75;;;2.20;;
36001;SDS011;22070;50.922;5.430;2023-10-08T06:28:36;5.78;;;2.53;;
36001;SDS011;22070;50.922;5.430;2023-10-08T06:31:09;4.07;;;2.45;;
36001;SDS011;22070;50.922;5.430;2023-10-08T06:33:41;4.25;;;2.38;;
36001;SDS011;22070;50.922;5.430;2023-10-08T06:36:08;5.20;;;2.55;;
36001;SDS011;22070;50.922;5.430;2023-10-08T06:38:37;4.10;;;2.50;;
36001;SDS011;22070;50.922;5.430;2023-10-08T06:41:04;7.35;;;3.22;;
36001;SDS011;22070;50.922;5.430;2023-10-08T06:43:34;8.23;;;2.80;;
36001;SDS011;22070;50.922;5.430;2023-10-08T06:46:01;4.97;;;2.92;;
36001;SDS011;22070;50.922;5.430;2023-10-08T06:48:28;3.17;;;2.40;;
36001;SDS011;22070;50.922;5.430;2023-10-08T06:50:54;6.35;;;2.92;;
36001;SDS011;22070;50.922;5.430;2023-10-08T06:53:23;4.13;;;2.72;;
36001;SDS011;22070;50.922;5.430;2023-10-08T06:55:50;7.53;;;2.88;;
36001;SDS011;22070;50.922;5.430;2023-10-08T06:58:29;5.95;;;2.95;;
36001;SDS011;22070;50.922;5.430;2023-10-08T07:00:59;7.35;;;2.60;;
36001;SDS011;22070;50.922;5.430;2023-10-08T07:03:30;6.13;;;2.88;;
36001;SDS011;22070;50.922;5.430;2023-10-08T07:08:27;4.18;;;2.75;;
36001;SDS011;22070;50.922;5.430;2023-10-08T07:10:58;3.83;;;2.55;;
36001;SDS011;22070;50.922;5.430;2023-10-08T07:13:31;5.20;;;2.53;;
36001;SDS011;22070;50.922;5.430;2023-10-08T07:15:57;5.40;;;3.20;;
36001;SDS011;22070;50.922;5.430;2023-10-08T07:18:25;5.97;;;2.80;;
36001;SDS011;22070;50.922;5.430;2023-10-08T07:20:54;9.70;;;3.43;;
36001;SDS011;22070;50.922;5.430;2023-10-08T07:23:25;6.40;;;2.72;;
36001;SDS011;22070;50.922;5.430;2023-10-08T07:25:59;5.43;;;3.00;;
36001;SDS011;22070;50.922;5.430;2023-10-08T07:28:42;4.43;;;2.53;;
36001;SDS011;22070;50.922;5.430;2023-10-08T07:31:18;6.88;;;2.60;;
36001;SDS011;22070;50.922;5.430;2023-10-08T07:33:53;4.60;;;2.83;;
36001;SDS011;22070;50.922;5.430;2023-10-08T07:36:23;4.93;;;2.60;;
36001;SDS011;22070;50.922;5.430;2023-10-08T07:38:50;6.07;;;2.85;;
36001;SDS011;22070;50.922;5.430;2023-10-08T07:41:16;5.55;;;2.50;;
36001;SDS011;22070;50.922;5.430;2023-10-08T07:43:44;4.03;;;2.72;;
36001;SDS011;22070;50.922;5.430;2023-10-08T07:46:24;5.63;;;2.85;;
36001;SDS011;22070;50.922;5.430;2023-10-08T07:48:53;6.05;;;2.47;;
36001;SDS011;22070;50.922;5.430;2023-10-08T07:51:20;6.95;;;2.78;;
36001;SDS011;22070;50.922;5.430;2023-10-08T07:53:49;5.38;;;3.10;;
36001;SDS011;22070;50.922;5.430;2023-10-08T07:56:24;6.10;;;3.30;;
36001;SDS011;22070;50.922;5.430;2023-10-08T07:58:50;8.00;;;2.65;;
36001;SDS011;22070;50.922;5.430;2023-10-08T08:03:45;5.07;;;3.22;;
36001;SDS011;22070;50.922;5.430;2023-10-08T08:06:13;10.20;;;3.33;;
36001;SDS011;22070;50.922;5.430;2023-10-08T08:11:06;7.95;;;3.50;;
36001;SDS011;22070;50.922;5.430;2023-10-08T08:13:37;8.32;;;3.90;;
36001;SDS011;22070;50.922;5.430;2023-10-08T08:16:04;4.30;;;2.63;;
36001;SDS011;22070;50.922;5.430;2023-10-08T08:18:56;10.25;;;3.00;;
36001;SDS011;22070;50.922;5.430;2023-10-08T08:21:22;9.40;;;3.97;;
36001;SDS011;22070;50.922;5.430;2023-10-08T08:23:48;4.47;;;2.80;;
36001;SDS011;22070;50.922;5.430;2023-10-08T08:26:18;7.13;;;3.28;;
36001;SDS011;22070;50.922;5.430;2023-10-08T08:31:25;7.63;;;3.10;;
36001;SDS011;22070;50.922;5.430;2023-10-08T08:33:51;7.63;;;3.42;;
36001;SDS011;22070;50.922;5.430;2023-10-08T08:36:24;9.50;;;3.55;;
36001;SDS011;22070;50.922;5.430;2023-10-08T08:38:50;6.30;;;3.40;;
36001;SDS011;22070;50.922;5.430;2023-10-08T08:41:17;9.18;;;3.53;;
36001;SDS011;22070;50.922;5.430;2023-10-08T08:43:48;8.27;;;3.40;;
36001;SDS011;22070;50.922;5.430;2023-10-08T08:46:34;10.98;;;3.40;;
36001;SDS011;22070;50.922;5.430;2023-10-08T08:49:02;7.88;;;3.72;;
36001;SDS011;22070;50.922;5.430;2023-10-08T08:51:33;5.78;;;3.20;;
36001;SDS011;22070;50.922;5.430;2023-10-08T08:54:00;8.50;;;3.25;;
36001;SDS011;22070;50.922;5.430;2023-10-08T08:56:31;9.95;;;3.85;;
36001;SDS011;22070;50.922;5.430;2023-10-08T08:58:59;12.70;;;3.90;;
36001;SDS011;22070;50.922;5.430;2023-10-08T09:01:25;11.00;;;3.75;;
36001;SDS011;22070;50.922;5.430;2023-10-08T09:03:58;10.50;;;4.60;;
36001;SDS011;22070;50.922;5.430;2023-10-08T09:06:26;7.13;;;3.35;;
36001;SDS011;22070;50.922;5.430;2023-10-08T09:08:52;5.53;;;3.45;;
36001;SDS011;22070;50.922;5.430;2023-10-08T09:11:20;10.38;;;3.92;;
36001;SDS011;22070;50.922;5.430;2023-10-08T09:13:46;9.27;;;4.30;;
36001;SDS011;22070;50.922;5.430;2023-10-08T09:16:15;8.53;;;4.17;;
36001;SDS011;22070;50.922;5.430;2023-10-08T09:18:42;17.15;;;4.30;;
36001;SDS011;22070;50.922;5.430;2023-10-08T09:21:16;9.00;;;3.88;;
36001;SDS011;22070;50.922;5.430;2023-10-08T09:23:51;9.88;;;4.25;;
36001;SDS011;22070;50.922;5.430;2023-10-08T09:26:22;7.50;;;4.18;;
36001;SDS011;22070;50.922;5.430;2023-10-08T09:28:49;7.20;;;3.42;;
36001;SDS011;22070;50.922;5.430;2023-10-08T09:33:43;10.27;;;4.50;;
36001;SDS011;22070;50.922;5.430;2023-10-08T09:36:18;9.57;;;4.07;;
36001;SDS011;22070;50.922;5.430;2023-10-08T09:38:45;11.30;;;4.32;;
36001;SDS011;22070;50.922;5.430;2023-10-08T09:41:14;12.50;;;4.00;;
36001;SDS011;22070;50.922;5.430;2023-10-08T09:43:40;8.67;;;4.23;;
36001;SDS011;22070;50.922;5.430;2023-10-08T09:46:19;12.05;;;3.92;;
36001;SDS011;22070;50.922;5.430;2023-10-08T09:48:51;10.32;;;4.03;;
36001;SDS011;22070;50.922;5.430;2023-10-08T09:51:20;10.35;;;4.72;;
36001;SDS011;22070;50.922;5.430;2023-10-08T09:53:58;7.73;;;3.37;;
36001;SDS011;22070;50.922;5.430;2023-10-08T09:56:35;11.02;;;3.88;;
36001;SDS011;22070;50.922;5.430;2023-10-08T09:59:02;8.98;;;4.13;;
36001;SDS011;22070;50.922;5.430;2023-10-08T10:01:28;11.02;;;4.10;;
36001;SDS011;22070;50.922;5.430;2023-10-08T10:03:57;11.85;;;4.28;;
36001;SDS011;22070;50.922;5.430;2023-10-08T10:06:25;5.75;;;3.58;;
36001;SDS011;22070;50.922;5.430;2023-10-08T10:08:52;9.00;;;4.43;;
36001;SDS011;22070;50.922;5.430;2023-10-08T10:11:28;11.82;;;4.13;;
36001;SDS011;22070;50.922;5.430;2023-10-08T10:13:58;11.40;;;4.43;;
36001;SDS011;22070;50.922;5.430;2023-10-08T10:16:25;10.18;;;4.63;;
36001;SDS011;22070;50.922;5.430;2023-10-08T10:18:54;9.15;;;3.97;;
36001;SDS011;22070;50.922;5.430;2023-10-08T10:21:26;14.45;;;4.32;;
36001;SDS011;22070;50.922;5.430;2023-10-08T10:23:56;11.77;;;4.43;;
36001;SDS011;22070;50.922;5.430;2023-10-08T10:26:23;11.02;;;4.03;;
36001;SDS011;22070;50.922;5.430;2023-10-08T10:31:39;16.52;;;5.07;;
36001;SDS011;22070;50.922;5.430;2023-10-08T10:34:13;13.00;;;4.75;;
36001;SDS011;22070;50.922;5.430;2023-10-08T10:36:41;11.57;;;5.03;;
36001;SDS011;22070;50.922;5.430;2023-10-08T10:39:12;9.68;;;4.50;;
36001;SDS011;22070;50.922;5.430;2023-10-08T10:41:51;9.63;;;5.15;;
36001;SDS011;22070;50.922;5.430;2023-10-08T10:44:22;11.75;;;4.13;;
36001;SDS011;22070;50.922;5.430;2023-10-08T10:46:49;7.75;;;4.18;;
36001;SDS011;22070;50.922;5.430;2023-10-08T10:49:19;10.83;;;4.13;;
36001;SDS011;22070;50.922;5.430;2023-10-08T10:51:55;16.48;;;5.18;;
36001;SDS011;22070;50.922;5.430;2023-10-08T10:54:26;10.38;;;4.47;;
36001;SDS011;22070;50.922;5.430;2023-10-08T10:57:01;13.27;;;4.78;;
36001;SDS011;22070;50.922;5.430;2023-10-08T10:59:31;11.07;;;4.40;;
36001;SDS011;22070;50.922;5.430;2023-10-08T11:02:03;9.77;;;4.05;;
36001;SDS011;22070;50.922;5.430;2023-10-08T11:04:46;10.65;;;5.15;;
36001;SDS011;22070;50.922;5.430;2023-10-08T11:07:21;11.18;;;4.70;;
36001;SDS011;22070;50.922;5.430;2023-10-08T11:09:48;7.78;;;3.83;;
36001;SDS011;22070;50.922;5.430;2023-10-08T11:12:17;9.75;;;4.40;;
36001;SDS011;22070;50.922;5.430;2023-10-08T11:14:48;10.50;;;4.18;;
36001;SDS011;22070;50.922;5.430;2023-10-08T11:17:17;13.38;;;4.45;;
36001;SDS011;22070;50.922;5.430;2023-10-08T11:19:48;29.80;;;5.03;;
36001;SDS011;22070;50.922;5.430;2023-10-08T11:22:16;10.10;;;4.13;;
36001;SDS011;22070;50.922;5.430;2023-10-08T11:24:43;12.60;;;5.40;;
36001;SDS011;22070;50.922;5.430;2023-10-08T11:27:13;9.68;;;4.45;;
36001;SDS011;22070;50.922;5.430;2023-10-08T11:29:53;12.40;;;4.40;;
36001;SDS011;22070;50.922;5.430;2023-10-08T11:32:22;13.30;;;4.30;;
36001;SDS011;22070;50.922;5.430;2023-10-08T11:34:59;9.63;;;4.05;;
36001;SDS011;22070;50.922;5.430;2023-10-08T11:37:26;9.50;;;4.45;;
36001;SDS011;22070;50.922;5.430;2023-10-08T11:39:56;13.15;;;4.93;;
36001;SDS011;22070;50.922;5.430;2023-10-08T11:42:25;8.45;;;3.80;;
36001;SDS011;22070;50.922;5.430;2023-10-08T11:45:06;11.00;;;4.25;;
36001;SDS011;22070;50.922;5.430;2023-10-08T11:47:49;9.60;;;3.88;;
36001;SDS011;22070;50.922;5.430;2023-10-08T11:50:22;11.93;;;3.90;;
36001;SDS011;22070;50.922;5.430;2023-10-08T11:52:56;10.00;;;4.68;;
36001;SDS011;22070;50.922;5.430;2023-10-08T11:55:28;11.02;;;3.95;;
36001;SDS011;22070;50.922;5.430;2023-10-08T11:57:59;8.48;;;3.72;;
36001;SDS011;22070;50.922;5.430;2023-10-08T12:00:25;13.63;;;4.38;;
36001;SDS011;22070;50.922;5.430;2023-10-08T12:02:51;12.73;;;4.13;;
36001;SDS011;22070;50.922;5.430;2023-10-08T12:05:21;11.20;;;4.25;;
36001;SDS011;22070;50.922;5.430;2023-10-08T12:07:53;13.32;;;4.70;;
36001;SDS011;22070;50.922;5.430;2023-10-08T12:10:23;12.10;;;4.43;;
36001;SDS011;22070;50.922;5.430;2023-10-08T12:12:52;12.25;;;4.60;;
36001;SDS011;22070;50.922;5.430;2023-10-08T12:15:22;14.88;;;4.45;;
36001;SDS011;22070;50.922;5.430;2023-10-08T12:17:58;9.95;;;4.07;;
36001;SDS011;22070;50.922;5.430;2023-10-08T12:20:37;9.23;;;4.10;;
36001;SDS011;22070;50.922;5.430;2023-10-08T12:23:06;9.93;;;3.58;;
36001;SDS011;22070;50.922;5.430;2023-10-08T12:25:35;11.73;;;4.13;;
36001;SDS011;22070;50.922;5.430;2023-10-08T12:28:02;9.40;;;3.90;;
36001;SDS011;22070;50.922;5.430;2023-10-08T12:30:29;9.45;;;4.05;;
36001;SDS011;22070;50.922;5.430;2023-10-08T12:35:25;12.05;;;5.03;;
36001;SDS011;22070;50.922;5.430;2023-10-08T12:37:54;10.60;;;4.97;;
36001;SDS011;22070;50.922;5.430;2023-10-08T12:40:20;11.77;;;4.43;;
36001;SDS011;22070;50.922;5.430;2023-10-08T12:42:49;11.32;;;3.72;;
36001;SDS011;22070;50.922;5.430;2023-10-08T12:45:16;12.80;;;4.68;;
36001;SDS011;22070;50.922;5.430;2023-10-08T12:47:46;10.30;;;4.88;;
36001;SDS011;22070;50.922;5.430;2023-10-08T12:50:16;8.15;;;3.90;;
36001;SDS011;22070;50.922;5.430;2023-10-08T12:52:48;10.52;;;4.05;;
36001;SDS011;22070;50.922;5.430;2023-10-08T12:55:23;9.45;;;3.85;;
36001;SDS011;22070;50.922;5.430;2023-10-08T12:57:50;11.15;;;4.07;;
36001;SDS011;22070;50.922;5.430;2023-10-08T13:00:21;15.77;;;4.15;;
36001;SDS011;22070;50.922;5.430;2023-10-08T13:02:48;11.75;;;3.88;;
36001;SDS011;22070;50.922;5.430;2023-10-08T13:05:18;8.27;;;4.57;;
36001;SDS011;22070;50.922;5.430;2023-10-08T13:07:54;13.57;;;4.53;;
36001;SDS011;22070;50.922;5.430;2023-10-08T13:10:21;10.60;;;4.40;;
36001;SDS011;22070;50.922;5.430;2023-10-08T13:12:51;11.40;;;4.70;;
36001;SDS011;22070;50.922;5.430;2023-10-08T13:15:17;10.85;;;4.32;;
36001;SDS011;22070;50.922;5.430;2023-10-08T13:17:43;9.73;;;4.07;;
36001;SDS011;22070;50.922;5.430;2023-10-08T13:20:10;9.05;;;4.03;;
36001;SDS011;22070;50.922;5.430;2023-10-08T13:22:40;7.85;;;3.67;;
36001;SDS011;22070;50.922;5.430;2023-10-08T13:25:06;12.20;;;3.92;;
36001;SDS011;22070;50.922;5.430;2023-10-08T13:27:33;8.88;;;3.88;;
36001;SDS011;22070;50.922;5.430;2023-10-08T13:29:58;6.27;;;2.50;;
36001;SDS011;22070;50.922;5.430;2023-10-08T13:32:29;9.05;;;3.63;;
36001;SDS011;22070;50.922;5.430;2023-10-08T13:34:55;9.88;;;3.88;;
36001;SDS011;22070;50.922;5.430;2023-10-08T13:37:21;11.07;;;3.83;;
36001;SDS011;22070;50.922;5.430;2023-10-08T13:39:47;8.43;;;3.43;;
36001;SDS011;22070;50.922;5.430;2023-10-08T13:42:12;11.67;;;3.83;;
36001;SDS011;22070;50.922;5.430;2023-10-08T13:44:44;10.30;;;4.30;;
36001;SDS011;22070;50.922;5.430;2023-10-08T13:47:10;11.77;;;3.75;;
36001;SDS011;22070;50.922;5.430;2023-10-08T13:49:40;8.23;;;3.72;;
36001;SDS011;22070;50.922;5.430;2023-10-08T13:52:06;8.68;;;3.72;;
36001;SDS011;22070;50.922;5.430;2023-10-08T13:54:33;9.35;;;4.15;;
36001;SDS011;22070;50.922;5.430;2023-10-08T13:57:01;10.88;;;3.63;;
36001;SDS011;22070;50.922;5.430;2023-10-08T13:59:27;13.60;;;4.15;;
36001;SDS011;22070;50.922;5.430;2023-10-08T14:01:56;9.98;;;4.10;;
36001;SDS011;22070;50.922;5.430;2023-10-08T14:04:22;18.90;;;4.15;;
36001;SDS011;22070;50.922;5.430;2023-10-08T14:07:03;10.25;;;3.83;;
36001;SDS011;22070;50.922;5.430;2023-10-08T14:09:29;12.18;;;3.47;;
36001;SDS011;22070;50.922;5.430;2023-10-08T14:12:01;7.47;;;3.67;;
36001;SDS011;22070;50.922;5.430;2023-10-08T14:14:28;11.60;;;3.92;;
36001;SDS011;22070;50.922;5.430;2023-10-08T14:16:58;9.13;;;3.53;;
36001;SDS011;22070;50.922;5.430;2023-10-08T14:19:28;10.95;;;3.08;;
36001;SDS011;22070;50.922;5.430;2023-10-08T14:22:04;11.98;;;3.95;;
36001;SDS011;22070;50.922;5.430;2023-10-08T14:24:33;12.88;;;3.72;;
36001;SDS011;22070;50.922;5.430;2023-10-08T14:27:03;5.95;;;3.40;;
36001;SDS011;22070;50.922;5.430;2023-10-08T14:29:35;6.93;;;3.63;;
36001;SDS011;22070;50.922;5.430;2023-10-08T14:32:09;12.48;;;3.80;;
36001;SDS011;22070;50.922;5.430;2023-10-08T14:34:38;11.82;;;3.65;;
36001;SDS011;22070;50.922;5.430;2023-10-08T14:37:22;7.60;;;3.88;;
36001;SDS011;22070;50.922;5.430;2023-10-08T14:40:06;10.27;;;4.38;;
36001;SDS011;22070;50.922;5.430;2023-10-08T14:42:51;9.82;;;3.30;;
36001;SDS011;22070;50.922;5.430;2023-10-08T14:45:31;7.28;;;3.80;;
36001;SDS011;22070;50.922;5.430;2023-10-08T14:48:00;7.75;;;3.92;;
36001;SDS011;22070;50.922;5.430;2023-10-08T14:50:27;12.68;;;3.78;;
36001;SDS011;22070;50.922;5.430;2023-10-08T14:52:56;8.68;;;3.70;;
36001;SDS011;22070;50.922;5.430;2023-10-08T14:55:23;9.95;;;3.60;;
36001;SDS011;22070;50.922;5.430;2023-10-08T14:57:49;8.13;;;3.70;;
36001;SDS011;22070;50.922;5.430;2023-10-08T15:00:18;8.02;;;3.47;;
36001;SDS011;22070;50.922;5.430;2023-10-08T15:02:50;9.68;;;3.30;;
36001;SDS011;22070;50.922;5.430;2023-10-08T15:05:18;15.60;;;4.60;;
36001;SDS011;22070;50.922;5.430;2023-10-08T15:07:46;11.40;;;3.92;;
36001;SDS011;22070;50.922;5.430;2023-10-08T15:10:14;8.13;;;3.58;;
36001;SDS011;22070;50.922;5.430;2023-10-08T15:12:40;7.00;;;3.55;;
36001;SDS011;22070;50.922;5.430;2023-10-08T15:15:06;9.20;;;3.67;;
36001;SDS011;22070;50.922;5.430;2023-10-08T15:17:38;9.15;;;3.50;;
36001;SDS011;22070;50.922;5.430;2023-10-08T15:20:08;7.40;;;3.45;;
36001;SDS011;22070;50.922;5.430;2023-10-08T15:22:39;14.45;;;3.95;;
36001;SDS011;22070;50.922;5.430;2023-10-08T15:25:17;10.23;;;3.80;;
36001;SDS011;22070;50.922;5.430;2023-10-08T15:27:43;11.25;;;4.32;;